createdAt,value
2018-12-15T00:00:52.172Z,102568.94
2018-12-15T00:01:52.522Z,102568.94
2018-12-15T00:02:53.278Z,102568.70
2018-12-15T00:03:52.793Z,102569.23
2018-12-15T00:04:53.337Z,102569.13
2018-12-15T00:05:53.796Z,102569.06
2018-12-15T00:06:55.800Z,102569.33
2018-12-15T00:07:58.797Z,102569.83
2018-12-15T00:08:55.830Z,102569.89
2018-12-15T00:09:57.356Z,102570.22
2018-12-15T00:10:58.102Z,102570.13
2018-12-15T00:11:58.614Z,102570.62
2018-12-15T00:12:59.544Z,102570.39
2018-12-15T00:13:59.926Z,102571.12
2018-12-15T00:15:00.426Z,102571.12
2018-12-15T00:16:01.025Z,102571.72
2018-12-15T00:17:05.724Z,102572.48
2018-12-15T00:18:01.095Z,102572.87
2018-12-15T00:19:03.127Z,102573.71
2018-12-15T00:20:03.567Z,102573.88
2018-12-15T00:21:03.937Z,102574.47
2018-12-15T00:22:04.417Z,102574.21
2018-12-15T00:23:04.817Z,102574.97
2018-12-15T00:24:05.146Z,102575.05
2018-12-15T00:25:05.772Z,102575.37
2018-12-15T00:26:06.145Z,102575.97
2018-12-15T00:27:06.651Z,102575.70
2018-12-15T00:27:14.989Z,102584.24
2018-12-15T00:28:16.492Z,102583.52
2018-12-15T00:29:16.825Z,102582.85
2018-12-15T00:30:17.237Z,102582.75
2018-12-15T00:31:17.588Z,102582.75
2018-12-15T00:32:18.027Z,102582.75
2018-12-15T00:33:18.470Z,102583.25
2018-12-15T00:34:18.949Z,102583.58
2018-12-15T00:35:19.617Z,102583.52
2018-12-15T00:36:20.045Z,102583.75
2018-12-15T00:37:20.402Z,102583.55
2018-12-15T00:38:20.859Z,102583.89
2018-12-15T00:39:21.592Z,102583.89
2018-12-15T00:40:22.026Z,102584.62
2018-12-15T00:41:22.377Z,102584.52
2018-12-15T00:42:22.460Z,102584.36
2018-12-15T00:43:22.780Z,102584.36
2018-12-15T00:44:23.191Z,102584.92
2018-12-15T00:45:23.776Z,102585.02
2018-12-15T00:46:24.277Z,102585.59
2018-12-15T00:47:24.703Z,102586.32
2018-12-15T00:48:25.231Z,102586.72
2018-12-15T00:49:25.585Z,102587.66
2018-12-15T00:50:26.130Z,102588.22
2018-12-15T00:51:26.679Z,102589.11
2018-12-15T00:52:27.061Z,102590.02
2018-12-15T00:53:27.424Z,102590.91
2018-12-15T00:54:27.773Z,102591.81
2018-12-15T00:55:28.308Z,102592.87
2018-12-15T00:56:28.807Z,102593.55
2018-12-15T00:57:29.274Z,102594.61
2018-12-15T00:58:29.650Z,102595.44
2018-12-15T00:59:29.999Z,102596.73
2018-12-15T01:00:30.512Z,102597.58
2018-12-15T01:01:31.041Z,102598.30
2018-12-15T01:02:31.412Z,102598.88
2018-12-15T01:03:31.840Z,102599.80
2018-12-15T01:04:32.188Z,102599.87
2018-12-15T01:05:32.690Z,102600.87
2018-12-15T01:06:33.044Z,102601.47
2018-12-15T01:07:33.513Z,102601.96
2018-12-15T01:08:33.972Z,102603.02
2018-12-15T01:09:34.408Z,102604.02
2018-12-15T01:10:34.850Z,102604.52
2018-12-15T01:11:35.296Z,102605.28
2018-12-15T01:11:44.315Z,102613.75
2018-12-15T01:12:45.779Z,102613.16
2018-12-15T01:13:46.218Z,102612.99
2018-12-15T01:14:46.953Z,102613.59
2018-12-15T01:15:47.366Z,102613.42
2018-12-15T01:16:47.805Z,102613.98
2018-12-15T01:17:48.170Z,102613.92
2018-12-15T01:18:48.584Z,102614.09
2018-12-15T01:19:49.012Z,102613.92
2018-12-15T01:20:49.362Z,102613.82
2018-12-15T01:21:49.800Z,102614.19
2018-12-15T01:22:50.474Z,102614.34
2018-12-15T01:23:50.829Z,102613.95
2018-12-15T01:24:51.215Z,102614.38
2018-12-15T01:25:51.548Z,102614.61
2018-12-15T01:26:52.057Z,102614.48
2018-12-15T01:27:52.771Z,102614.73
2018-12-15T01:28:53.734Z,102614.84
2018-12-15T01:29:54.147Z,102614.60
2018-12-15T01:30:54.772Z,102615.09
2018-12-15T01:31:54.030Z,102615.46
2018-12-15T01:32:55.548Z,102615.79
2018-12-15T01:33:55.983Z,102616.38
2018-12-15T01:34:56.453Z,102616.98
2018-12-15T01:35:56.700Z,102618.31
2018-12-15T01:36:57.342Z,102618.58
2018-12-15T01:37:57.973Z,102619.67
2018-12-15T01:38:58.345Z,102620.59
2018-12-15T01:39:58.737Z,102620.90
2018-12-15T01:40:59.019Z,102621.63
2018-12-15T01:41:59.419Z,102622.80
2018-12-15T01:42:59.894Z,102623.69
2018-12-15T01:44:00.239Z,102624.76
2018-12-15T01:45:00.600Z,102626.09
2018-12-15T01:46:00.937Z,102626.59
2018-12-15T01:47:01.555Z,102627.55
2018-12-15T01:48:02.398Z,102629.22
2018-12-15T01:49:02.767Z,102629.88
2018-12-15T01:50:03.247Z,102631.08
2018-12-15T01:51:03.531Z,102632.91
2018-12-15T01:52:03.951Z,102634.05
2018-12-15T01:53:04.396Z,102635.38
2018-12-15T01:54:04.745Z,102636.87
2018-12-15T01:55:05.170Z,102638.62
2018-12-15T01:56:05.491Z,102639.55
2018-12-15T01:57:05.952Z,102641.21
2018-12-15T01:57:14.289Z,102667.36
2018-12-15T01:58:16.748Z,102666.80
2018-12-15T01:59:15.031Z,102666.70
2018-12-15T02:00:16.335Z,102666.59
2018-12-15T02:01:17.094Z,102666.44
2018-12-15T02:02:17.811Z,102666.67
2018-12-15T02:03:18.300Z,102665.97
2018-12-15T02:04:18.710Z,102665.91
2018-12-15T02:05:19.265Z,102665.70
2018-12-15T02:06:19.705Z,102665.55
2018-12-15T02:07:20.035Z,102665.45
2018-12-15T02:08:20.300Z,102665.09
2018-12-15T02:09:20.579Z,102664.95
2018-12-15T02:10:21.072Z,102664.30
2018-12-15T02:11:21.424Z,102664.43
2018-12-15T02:12:22.175Z,102664.44
2018-12-15T02:13:22.623Z,102663.91
2018-12-15T02:14:23.083Z,102663.57
2018-12-15T02:15:23.323Z,102663.64
2018-12-15T02:16:23.695Z,102663.64
2018-12-15T02:17:24.155Z,102663.73
2018-12-15T02:18:24.470Z,102664.14
2018-12-15T02:19:26.071Z,102664.06
2018-12-15T02:20:25.448Z,102664.33
2018-12-15T02:21:25.861Z,102664.66
2018-12-15T02:22:26.182Z,102664.70
2018-12-15T02:23:26.601Z,102664.63
2018-12-15T02:24:26.902Z,102664.30
2018-12-15T02:25:27.269Z,102664.59
2018-12-15T02:26:26.535Z,102664.35
2018-12-15T02:27:28.074Z,102664.34
2018-12-15T02:28:28.469Z,102663.22
2018-12-15T02:29:28.773Z,102662.98
2018-12-15T02:30:29.281Z,102662.65
2018-12-15T02:31:29.671Z,102662.61
2018-12-15T02:32:30.006Z,102662.81
2018-12-15T02:33:30.746Z,102662.73
2018-12-15T02:34:31.124Z,102662.67
2018-12-15T02:35:31.531Z,102662.50
2018-12-15T02:36:31.983Z,102662.20
2018-12-15T02:37:32.402Z,102662.62
2018-12-15T02:38:32.941Z,102662.62
2018-12-15T02:39:33.329Z,102662.86
2018-12-15T02:40:34.053Z,102662.62
2018-12-15T02:41:34.352Z,102662.39
2018-12-15T02:42:35.330Z,102662.49
2018-12-15T02:43:35.752Z,102662.89
2018-12-15T02:43:44.015Z,102667.51
2018-12-15T02:44:45.536Z,102667.58
2018-12-15T02:45:45.949Z,102667.41
2018-12-15T02:46:46.641Z,102667.08
2018-12-15T02:47:47.049Z,102666.75
2018-12-15T02:48:47.561Z,102666.75
2018-12-15T02:49:48.040Z,102667.31
2018-12-15T02:50:48.645Z,102666.48
2018-12-15T02:51:49.102Z,102667.05
2018-12-15T02:52:49.435Z,102666.63
2018-12-15T02:53:50.241Z,102666.86
2018-12-15T02:54:50.817Z,102667.09
2018-12-15T02:55:51.240Z,102666.83
2018-12-15T02:56:51.644Z,102667.16
2018-12-15T02:57:52.040Z,102666.83
2018-12-15T02:58:52.719Z,102665.99
2018-12-15T02:59:53.330Z,102665.76
2018-12-15T03:00:53.689Z,102665.03
2018-12-15T03:01:54.060Z,102664.69
2018-12-15T03:02:54.591Z,102663.80
2018-12-15T03:03:55.048Z,102663.56
2018-12-15T03:04:55.695Z,102663.00
2018-12-15T03:05:56.157Z,102662.77
2018-12-15T03:06:56.560Z,102662.03
2018-12-15T03:07:57.048Z,102661.77
2018-12-15T03:08:57.536Z,102661.53
2018-12-15T03:09:57.981Z,102661.03
2018-12-15T03:10:58.741Z,102660.80
2018-12-15T03:11:59.154Z,102660.69
2018-12-15T03:12:59.564Z,102660.63
2018-12-15T03:14:00.047Z,102660.72
2018-12-15T03:15:00.712Z,102660.16
2018-12-15T03:16:01.083Z,102660.32
2018-12-15T03:17:01.789Z,102659.92
2018-12-15T03:18:02.222Z,102660.08
2018-12-15T03:19:02.638Z,102659.52
2018-12-15T03:20:03.376Z,102658.45
2018-12-15T03:21:03.835Z,102657.72
2018-12-15T03:22:04.232Z,102657.45
2018-12-15T03:23:04.636Z,102656.43
2018-12-15T03:24:05.231Z,102655.87
2018-12-15T03:25:05.975Z,102655.27
2018-12-15T03:26:06.733Z,102654.34
2018-12-15T03:27:07.511Z,102653.74
2018-12-15T03:28:07.982Z,102653.58
2018-12-15T03:28:16.383Z,102643.25
2018-12-15T03:29:17.954Z,102642.66
2018-12-15T03:30:18.534Z,102642.55
2018-12-15T03:31:18.899Z,102642.45
2018-12-15T03:32:19.243Z,102641.89
2018-12-15T03:33:19.877Z,102641.89
2018-12-15T03:34:20.282Z,102641.13
2018-12-15T03:35:20.648Z,102640.80
2018-12-15T03:36:21.044Z,102640.70
2018-12-15T03:37:21.812Z,102640.44
2018-12-15T03:38:22.284Z,102639.77
2018-12-15T03:39:22.651Z,102639.67
2018-12-15T03:40:23.176Z,102639.17
2018-12-15T03:41:23.628Z,102638.48
2018-12-15T03:42:24.091Z,102637.92
2018-12-15T03:43:24.458Z,102637.42
2018-12-15T03:44:25.081Z,102636.76
2018-12-15T03:45:25.633Z,102636.26
2018-12-15T03:46:26.259Z,102635.92
2018-12-15T03:47:26.653Z,102635.66
2018-12-15T03:48:27.527Z,102635.33
2018-12-15T03:49:27.919Z,102634.77
2018-12-15T03:50:28.421Z,102634.70
2018-12-15T03:51:28.755Z,102634.76
2018-12-15T03:52:29.089Z,102634.63
2018-12-15T03:53:29.506Z,102634.63
2018-12-15T03:54:30.079Z,102634.16
2018-12-15T03:55:30.657Z,102633.48
2018-12-15T03:56:31.312Z,102633.02
2018-12-15T03:57:31.766Z,102632.61
2018-12-15T03:58:32.140Z,102632.05
2018-12-15T03:59:32.642Z,102631.91
2018-12-15T04:00:33.198Z,102631.77
2018-12-15T04:01:33.655Z,102631.20
2018-12-15T04:02:34.087Z,102631.23
2018-12-15T04:03:34.503Z,102630.66
2018-12-15T04:04:34.902Z,102630.69
2018-12-15T04:05:35.368Z,102630.22
2018-12-15T04:06:35.790Z,102628.98
2018-12-15T04:07:36.183Z,102628.68
2018-12-15T04:08:36.698Z,102628.57
2018-12-15T04:09:37.258Z,102627.67
2018-12-15T04:10:38.016Z,102626.36
2018-12-15T04:11:38.498Z,102625.49
2018-12-15T04:12:37.800Z,102624.52
2018-12-15T04:12:46.211Z,102608.98
2018-12-15T04:13:45.860Z,102608.39
2018-12-15T04:14:47.516Z,102608.72
2018-12-15T04:15:48.182Z,102609.66
2018-12-15T04:16:48.864Z,102609.95
2018-12-15T04:17:49.507Z,102610.36
2018-12-15T04:18:50.223Z,102611.09
2018-12-15T04:19:50.690Z,102611.23
2018-12-15T04:20:51.136Z,102611.31
2018-12-15T04:21:51.666Z,102611.71
2018-12-15T04:22:52.327Z,102611.84
2018-12-15T04:23:52.719Z,102612.02
2018-12-15T04:24:53.122Z,102611.48
2018-12-15T04:25:53.491Z,102611.06
2018-12-15T04:26:54.043Z,102610.80
2018-12-15T04:27:54.829Z,102610.77
2018-12-15T04:28:55.354Z,102611.01
2018-12-15T04:29:55.816Z,102611.25
2018-12-15T04:30:56.234Z,102611.48
2018-12-15T04:31:56.747Z,102611.45
2018-12-15T04:32:57.262Z,102611.19
2018-12-15T04:33:57.269Z,102611.53
2018-12-15T04:34:57.906Z,102611.17
2018-12-15T04:35:58.387Z,102611.11
2018-12-15T04:36:58.961Z,102610.66
2018-12-15T04:37:59.085Z,102610.04
2018-12-15T04:38:59.921Z,102609.91
2018-12-15T04:40:00.591Z,102610.05
2018-12-15T04:41:01.053Z,102610.02
2018-12-15T04:42:01.468Z,102609.77
2018-12-15T04:43:01.962Z,102610.43
2018-12-15T04:44:02.376Z,102610.17
2018-12-15T04:45:03.084Z,102609.70
2018-12-15T04:46:03.545Z,102609.55
2018-12-15T04:47:04.203Z,102609.61
2018-12-15T04:48:10.879Z,102609.78
2018-12-15T04:49:04.174Z,102609.25
2018-12-15T04:50:05.767Z,102609.19
2018-12-15T04:51:06.445Z,102609.59
2018-12-15T04:52:06.831Z,102609.56
2018-12-15T04:53:07.506Z,102609.66
2018-12-15T04:54:08.223Z,102609.73
2018-12-15T04:55:08.763Z,102609.63
2018-12-15T04:56:09.221Z,102609.63
2018-12-15T04:57:09.748Z,102609.20
2018-12-15T04:58:10.114Z,102609.10
2018-12-15T04:59:10.536Z,102608.70
2018-12-15T04:59:18.891Z,102607.77
2018-12-15T05:00:20.251Z,102607.70
2018-12-15T05:01:20.856Z,102608.20
2018-12-15T05:02:21.240Z,102608.20
2018-12-15T05:03:22.894Z,102607.61
2018-12-15T05:04:21.036Z,102607.18
2018-12-15T05:05:22.966Z,102607.18
2018-12-15T05:06:23.402Z,102607.08
2018-12-15T05:07:24.114Z,102606.91
2018-12-15T05:08:24.473Z,102606.91
2018-12-15T05:09:24.963Z,102607.02
2018-12-15T05:10:24.631Z,102606.68
2018-12-15T05:11:26.049Z,102607.02
2018-12-15T05:12:26.468Z,102607.11
2018-12-15T05:13:27.028Z,102607.11
2018-12-15T05:14:27.507Z,102607.55
2018-12-15T05:15:27.935Z,102607.55
2018-12-15T05:16:28.433Z,102607.20
2018-12-15T05:17:29.221Z,102607.38
2018-12-15T05:18:29.690Z,102606.95
2018-12-15T05:19:30.212Z,102606.78
2018-12-15T05:20:30.424Z,102606.78
2018-12-15T05:21:30.765Z,102606.78
2018-12-15T05:22:31.238Z,102606.68
2018-12-15T05:23:31.591Z,102606.95
2018-12-15T05:24:32.001Z,102607.44
2018-12-15T05:25:32.059Z,102607.70
2018-12-15T05:26:32.497Z,102608.44
2018-12-15T05:27:33.026Z,102608.38
2018-12-15T05:28:33.400Z,102608.87
2018-12-15T05:29:33.929Z,102609.10
2018-12-15T05:30:34.525Z,102609.17
2018-12-15T05:31:35.010Z,102609.57
2018-12-15T05:32:35.434Z,102609.57
2018-12-15T05:33:35.841Z,102609.73
2018-12-15T05:34:36.440Z,102609.41
2018-12-15T05:35:36.894Z,102609.77
2018-12-15T05:36:37.296Z,102610.20
2018-12-15T05:37:38.256Z,102610.27
2018-12-15T05:38:38.726Z,102610.53
2018-12-15T05:39:39.144Z,102611.19
2018-12-15T05:40:38.557Z,102610.86
2018-12-15T05:41:40.255Z,102611.55
2018-12-15T05:42:40.282Z,102611.48
2018-12-15T05:43:40.676Z,102611.05
2018-12-15T05:44:41.329Z,102611.42
2018-12-15T05:45:41.684Z,102611.52
2018-12-15T05:45:49.940Z,102622.42
2018-12-15T05:46:51.307Z,102621.83
2018-12-15T05:47:51.779Z,102621.06
2018-12-15T05:48:52.328Z,102620.89
2018-12-15T05:49:53.047Z,102620.89
2018-12-15T05:50:53.432Z,102620.33
2018-12-15T05:51:53.971Z,102620.89
2018-12-15T05:52:54.375Z,102621.06
2018-12-15T05:53:54.981Z,102621.33
2018-12-15T05:54:55.389Z,102621.33
2018-12-15T05:55:55.792Z,102621.76
2018-12-15T05:56:56.293Z,102621.42
2018-12-15T05:57:56.989Z,102621.26
2018-12-15T05:58:57.881Z,102621.32
2018-12-15T05:59:58.382Z,102621.59
2018-12-15T06:00:58.995Z,102621.69
2018-12-15T06:01:59.446Z,102621.62
2018-12-15T06:02:59.820Z,102621.95
2018-12-15T06:04:00.431Z,102621.71
2018-12-15T06:05:01.061Z,102622.05
2018-12-15T06:06:01.607Z,102621.70
2018-12-15T06:07:02.072Z,102621.98
2018-12-15T06:08:02.515Z,102621.64
2018-12-15T06:09:03.169Z,102621.98
2018-12-15T06:10:03.553Z,102621.70
2018-12-15T06:11:04.121Z,102622.05
2018-12-15T06:12:04.775Z,102621.88
2018-12-15T06:13:05.075Z,102621.88
2018-12-15T06:14:05.489Z,102621.88
2018-12-15T06:15:06.025Z,102622.30
2018-12-15T06:16:06.377Z,102621.98
2018-12-15T06:17:06.769Z,102621.98
2018-12-15T06:18:07.123Z,102622.41
2018-12-15T06:19:07.611Z,102622.41
2018-12-15T06:20:08.002Z,102622.17
2018-12-15T06:21:08.595Z,102622.23
2018-12-15T06:22:08.974Z,102621.73
2018-12-15T06:23:09.596Z,102621.50
2018-12-15T06:24:10.033Z,102621.44
2018-12-15T06:25:10.411Z,102620.94
2018-12-15T06:26:10.825Z,102620.44
2018-12-15T06:27:11.265Z,102620.00
2018-12-15T06:28:12.046Z,102619.61
2018-12-15T06:28:21.102Z,102611.17
2018-12-15T06:29:22.539Z,102610.91
2018-12-15T06:30:22.912Z,102611.41
2018-12-15T06:31:23.287Z,102611.91
2018-12-15T06:32:23.773Z,102612.17
2018-12-15T06:33:24.209Z,102612.50
2018-12-15T06:34:24.630Z,102612.56
2018-12-15T06:35:25.050Z,102612.47
2018-12-15T06:36:25.398Z,102612.30
2018-12-15T06:37:25.768Z,102612.30
2018-12-15T06:38:26.231Z,102612.63
2018-12-15T06:39:26.747Z,102612.30
2018-12-15T06:40:27.289Z,102612.73
2018-12-15T06:41:27.776Z,102612.83
2018-12-15T06:42:28.207Z,102612.73
2018-12-15T06:43:28.575Z,102611.56
2018-12-15T06:44:29.047Z,102611.66
2018-12-15T06:45:29.708Z,102611.93
2018-12-15T06:46:30.408Z,102612.26
2018-12-15T06:47:30.745Z,102612.36
2018-12-15T06:48:31.198Z,102613.05
2018-12-15T06:49:31.773Z,102612.95
2018-12-15T06:50:32.213Z,102613.48
2018-12-15T06:51:32.615Z,102614.47
2018-12-15T06:52:32.996Z,102614.91
2018-12-15T06:53:33.477Z,102615.23
2018-12-15T06:54:33.845Z,102615.70
2018-12-15T06:55:34.273Z,102616.54
2018-12-15T06:56:34.600Z,102616.69
2018-12-15T06:57:35.138Z,102617.05
2018-12-15T06:58:35.669Z,102617.53
2018-12-15T06:59:36.253Z,102617.80
2018-12-15T07:00:36.763Z,102618.67
2018-12-15T07:01:37.128Z,102618.59
2018-12-15T07:02:37.535Z,102618.89
2018-12-15T07:03:38.405Z,102619.13
2018-12-15T07:04:38.769Z,102619.42
2018-12-15T07:05:39.432Z,102619.43
2018-12-15T07:06:39.868Z,102619.56
2018-12-15T07:07:40.579Z,102620.16
2018-12-15T07:08:41.059Z,102620.40
2018-12-15T07:09:41.631Z,102620.47
2018-12-15T07:10:42.315Z,102621.13
2018-12-15T07:11:42.675Z,102621.80
2018-12-15T07:12:43.069Z,102622.23
2018-12-15T07:12:51.498Z,102636.27
2018-12-15T07:13:53.214Z,102635.67
2018-12-15T07:14:53.723Z,102635.51
2018-12-15T07:15:54.397Z,102635.34
2018-12-15T07:16:55.044Z,102635.17
2018-12-15T07:17:55.539Z,102635.11
2018-12-15T07:18:56.237Z,102635.17
2018-12-15T07:19:56.647Z,102635.27
2018-12-15T07:20:57.209Z,102635.30
2018-12-15T07:21:57.610Z,102635.30
2018-12-15T07:22:58.383Z,102635.39
2018-12-15T07:23:58.828Z,102635.39
2018-12-15T07:24:59.212Z,102635.59
2018-12-15T07:25:59.647Z,102635.59
2018-12-15T07:27:00.108Z,102635.45
2018-12-15T07:28:00.461Z,102635.12
2018-12-15T07:29:01.045Z,102635.48
2018-12-15T07:30:01.412Z,102635.05
2018-12-15T07:31:01.729Z,102635.31
2018-12-15T07:32:02.058Z,102635.44
2018-12-15T07:33:02.700Z,102635.53
2018-12-15T07:34:03.015Z,102635.53
2018-12-15T07:35:03.382Z,102635.62
2018-12-15T07:36:03.792Z,102636.05
2018-12-15T07:37:03.593Z,102636.05
2018-12-15T07:38:04.870Z,102636.16
2018-12-15T07:39:05.222Z,102636.22
2018-12-15T07:40:05.823Z,102636.32
2018-12-15T07:41:06.184Z,102636.41
2018-12-15T07:42:06.304Z,102636.75
2018-12-15T07:43:06.830Z,102636.94
2018-12-15T07:44:07.195Z,102637.17
2018-12-15T07:45:07.739Z,102637.11
2018-12-15T07:46:08.233Z,102636.70
2018-12-15T07:47:08.600Z,102637.20
2018-12-15T07:48:08.954Z,102637.39
2018-12-15T07:49:09.316Z,102637.06
2018-12-15T07:50:10.035Z,102636.99
2018-12-15T07:51:10.418Z,102636.86
2018-12-15T07:52:10.911Z,102636.02
2018-12-15T07:52:19.217Z,102632.03
2018-12-15T07:53:20.655Z,102631.47
2018-12-15T07:54:20.942Z,102631.30
2018-12-15T07:55:21.369Z,102630.63
2018-12-15T07:56:21.648Z,102629.87
2018-12-15T07:57:22.011Z,102629.80
2018-12-15T07:58:22.296Z,102629.14
2018-12-15T07:59:22.740Z,102628.47
2018-12-15T08:00:23.091Z,102628.54
2018-12-15T08:01:23.447Z,102627.97
2018-12-15T08:02:23.817Z,102627.34
2018-12-15T08:03:24.188Z,102626.41
2018-12-15T08:04:24.514Z,102625.94
2018-12-15T08:05:24.971Z,102625.20
2018-12-15T08:06:25.425Z,102624.77
2018-12-15T08:07:27.328Z,102624.53
2018-12-15T08:08:25.627Z,102624.13
2018-12-15T08:09:27.041Z,102623.87
2018-12-15T08:10:27.520Z,102623.63
2018-12-15T08:11:28.370Z,102622.80
2018-12-15T08:12:28.835Z,102622.56
2018-12-15T08:13:29.431Z,102622.56
2018-12-15T08:14:29.820Z,102622.16
2018-12-15T08:15:30.314Z,102622.09
2018-12-15T08:16:30.812Z,102622.09
2018-12-15T08:17:31.145Z,102621.69
2018-12-15T08:18:31.605Z,102622.02
2018-12-15T08:19:31.978Z,102622.21
2018-12-15T08:20:32.506Z,102621.88
2018-12-15T08:21:32.903Z,102622.50
2018-12-15T08:22:32.270Z,102623.09
2018-12-15T08:23:33.674Z,102623.52
2018-12-15T08:24:34.078Z,102624.22
2018-12-15T08:25:34.480Z,102624.31
2018-12-15T08:26:34.825Z,102624.83
2018-12-15T08:27:35.155Z,102625.09
2018-12-15T08:28:35.608Z,102625.52
2018-12-15T08:29:35.920Z,102625.98
2018-12-15T08:30:36.271Z,102626.24
2018-12-15T08:31:36.738Z,102627.09
2018-12-15T08:32:37.454Z,102627.53
2018-12-15T08:33:37.041Z,102627.86
2018-12-15T08:34:38.504Z,102628.05
2018-12-15T08:35:39.047Z,102628.16
2018-12-15T08:36:39.415Z,102628.38
2018-12-15T08:37:39.789Z,102627.81
2018-12-15T08:38:40.171Z,102628.17
2018-12-15T08:38:48.221Z,102632.27
2018-12-15T08:39:49.501Z,102631.50
2018-12-15T08:40:49.951Z,102631.83
2018-12-15T08:41:50.313Z,102632.09
2018-12-15T08:42:50.921Z,102631.77
2018-12-15T08:43:51.329Z,102631.93
2018-12-15T08:44:52.062Z,102632.09
2018-12-15T08:45:52.546Z,102632.52
2018-12-15T08:46:53.058Z,102632.36
2018-12-15T08:47:53.596Z,102632.69
2018-12-15T08:48:54.240Z,102632.72
2018-12-15T08:49:54.604Z,102632.65
2018-12-15T08:50:54.976Z,102633.14
2018-12-15T08:51:55.354Z,102633.24
2018-12-15T08:52:55.792Z,102633.41
2018-12-15T08:53:56.516Z,102633.17
2018-12-15T08:54:56.844Z,102633.66
2018-12-15T08:55:57.282Z,102633.63
2018-12-15T08:56:57.632Z,102633.63
2018-12-15T08:57:57.941Z,102633.72
2018-12-15T08:58:58.227Z,102633.52
2018-12-15T08:59:58.616Z,102633.94
2018-12-15T09:00:58.916Z,102634.17
2018-12-15T09:01:59.464Z,102634.59
2018-12-15T09:03:00.072Z,102635.03
2018-12-15T09:04:00.428Z,102635.36
2018-12-15T09:05:01.053Z,102636.05
2018-12-15T09:06:01.549Z,102637.05
2018-12-15T09:07:01.920Z,102637.14
2018-12-15T09:08:02.346Z,102637.84
2018-12-15T09:09:02.719Z,102638.50
2018-12-15T09:10:03.094Z,102639.59
2018-12-15T09:11:03.457Z,102639.79
2018-12-15T09:12:03.840Z,102640.81
2018-12-15T09:13:04.176Z,102641.07
2018-12-15T09:14:04.698Z,102641.00
2018-12-15T09:15:05.100Z,102641.42
2018-12-15T09:16:05.564Z,102641.52
2018-12-15T09:17:05.965Z,102641.48
2018-12-15T09:18:06.459Z,102641.74
2018-12-15T09:19:11.260Z,102642.00
2018-12-15T09:20:06.334Z,102642.27
2018-12-15T09:21:07.699Z,102643.02
2018-12-15T09:22:11.631Z,102643.48
2018-12-15T09:23:07.729Z,102644.07
2018-12-15T09:24:09.142Z,102643.91
2018-12-15T09:25:09.478Z,102644.50
2018-12-15T09:25:17.844Z,102653.70
2018-12-15T09:26:19.311Z,102652.61
2018-12-15T09:27:20.350Z,102652.61
2018-12-15T09:28:20.697Z,102652.02
2018-12-15T09:29:20.978Z,102651.68
2018-12-15T09:30:21.341Z,102652.02
2018-12-15T09:31:21.758Z,102651.84
2018-12-15T09:32:22.372Z,102651.61
2018-12-15T09:33:22.846Z,102651.28
2018-12-15T09:34:23.231Z,102651.28
2018-12-15T09:35:24.019Z,102651.05
2018-12-15T09:36:24.359Z,102650.61
2018-12-15T09:37:24.777Z,102650.20
2018-12-15T09:38:25.143Z,102650.30
2018-12-15T09:39:25.483Z,102650.30
2018-12-15T09:40:26.139Z,102649.64
2018-12-15T09:41:26.847Z,102649.23
2018-12-15T09:42:27.319Z,102649.41
2018-12-15T09:43:27.696Z,102649.47
2018-12-15T09:44:28.216Z,102649.73
2018-12-15T09:45:28.697Z,102650.09
2018-12-15T09:46:29.012Z,102649.83
2018-12-15T09:47:29.350Z,102649.59
2018-12-15T09:48:29.732Z,102650.12
2018-12-15T09:49:30.169Z,102650.21
2018-12-15T09:50:31.542Z,102650.20
2018-12-15T09:51:30.953Z,102650.90
2018-12-15T09:52:31.379Z,102651.06
2018-12-15T09:53:30.738Z,102651.92
2018-12-15T09:54:32.061Z,102651.59
2018-12-15T09:55:33.431Z,102652.02
2018-12-15T09:56:33.012Z,102651.88
2018-12-15T09:57:33.394Z,102651.70
2018-12-15T09:58:34.054Z,102651.97
2018-12-15T09:59:34.510Z,102651.66
2018-12-15T10:00:34.888Z,102651.42
2018-12-15T10:01:35.468Z,102651.18
2018-12-15T10:02:35.813Z,102651.04
2018-12-15T10:03:36.268Z,102650.63
2018-12-15T10:04:36.556Z,102650.49
2018-12-15T10:05:37.105Z,102650.25
2018-12-15T10:06:37.499Z,102649.95
2018-12-15T10:07:37.834Z,102649.88
2018-12-15T10:08:39.449Z,102649.13
2018-12-15T10:09:39.032Z,102648.66
2018-12-15T10:10:39.483Z,102648.52
2018-12-15T10:10:47.989Z,102651.99
2018-12-15T10:11:49.325Z,102651.06
2018-12-15T10:12:49.691Z,102650.56
2018-12-15T10:13:50.502Z,102650.33
2018-12-15T10:14:51.114Z,102649.56
2018-12-15T10:15:51.815Z,102649.06
2018-12-15T10:16:52.194Z,102648.89
2018-12-15T10:17:52.551Z,102648.33
2018-12-15T10:18:54.548Z,102647.92
2018-12-15T10:19:54.193Z,102647.19
2018-12-15T10:20:54.620Z,102646.19
2018-12-15T10:21:55.029Z,102645.26
2018-12-15T10:22:54.416Z,102643.92
2018-12-15T10:23:55.881Z,102643.02
2018-12-15T10:24:56.325Z,102641.36
2018-12-15T10:25:56.936Z,102639.86
2018-12-15T10:26:57.338Z,102638.19
2018-12-15T10:27:57.758Z,102636.53
2018-12-15T10:28:58.290Z,102635.20
2018-12-15T10:29:58.715Z,102633.70
2018-12-15T10:30:59.257Z,102631.86
2018-12-15T10:31:59.600Z,102629.94
2018-12-15T10:33:00.049Z,102628.20
2018-12-15T10:34:00.406Z,102626.20
2018-12-15T10:35:01.013Z,102624.28
2018-12-15T10:36:01.357Z,102622.95
2018-12-15T10:37:01.629Z,102621.62
2018-12-15T10:38:02.101Z,102619.86
2018-12-15T10:39:02.543Z,102618.86
2018-12-15T10:40:02.873Z,102618.62
2018-12-15T10:41:03.661Z,102617.63
2018-12-15T10:42:04.211Z,102616.28
2018-12-15T10:43:04.512Z,102615.38
2018-12-15T10:44:04.680Z,102614.22
2018-12-15T10:45:05.197Z,102612.55
2018-12-15T10:46:05.583Z,102610.95
2018-12-15T10:47:06.098Z,102609.89
2018-12-15T10:48:06.457Z,102608.55
2018-12-15T10:49:06.899Z,102607.39
2018-12-15T10:50:07.320Z,102605.89
2018-12-15T10:51:07.669Z,102604.48
2018-12-15T10:52:08.039Z,102602.82
2018-12-15T10:53:08.395Z,102601.25
2018-12-15T10:53:24.454Z,102582.47
2018-12-15T10:54:26.808Z,102582.07
2018-12-15T10:55:26.177Z,102581.48
2018-12-15T10:56:26.484Z,102581.31
2018-12-15T10:57:26.796Z,102580.98
2018-12-15T10:58:27.395Z,102580.64
2018-12-15T10:59:27.796Z,102579.98
2018-12-15T11:00:28.345Z,102579.91
2018-12-15T11:01:28.824Z,102579.41
2018-12-15T11:02:29.147Z,102579.16
2018-12-15T11:03:29.585Z,102578.50
2018-12-15T11:04:30.016Z,102577.84
2018-12-15T11:05:30.496Z,102576.67
2018-12-15T11:06:29.734Z,102576.10
2018-12-15T11:07:31.142Z,102575.33
2018-12-15T11:08:31.460Z,102574.77
2018-12-15T11:09:31.980Z,102573.86
2018-12-15T11:10:32.456Z,102572.92
2018-12-15T11:11:33.077Z,102571.86
2018-12-15T11:12:33.593Z,102571.45
2018-12-15T11:13:33.916Z,102570.14
2018-12-15T11:14:34.441Z,102569.64
2018-12-15T11:15:34.862Z,102569.00
2018-12-15T11:16:35.408Z,102568.33
2018-12-15T11:17:36.163Z,102567.42